Uxbridge, Canada
Current Conditions -  °F | °C
As of 10:00 AM on Wednesday 22 Oct 2014 (Local Time) from CYKZ Reporting Station
Broken Clouds Broken Clouds  
Wind Chill:   Ceiling: 4500
Heat Index:   Visibility: 15mi
Dew Point:   Wind: 8mph
Humidity: 70%   Direction: 20°NNE
Pressure: 30.28"   Gusts: NA
Location:  44.1°N, 79.12°W
Report Text: CYKZ 221400Z 02007KT 15SM BKN045 06/01 A3028 RMK SC6 SLP259
Loading
Personal Weather Stations






























Interactive Weather Map
Tropical Storm Tracking
New forecast layout! Learn more

10-Day Weather Forecast

Advertisements
Track Severe Weather on mobile